Time;durP1;ratioP1;P1;durP2;ratioP2;P2;SDS_P1;SDS_P2;PMS_P1;PMS_P2;Temp;Humidity;BMP_temperature;BMP_pressure;BME280_temperature;BME280_humidity;BME280_pressure;Samples;Min_cycle;Max_cycle;Signal;HPM_P1;HPM_P2
2023/09/25 00:00:30;;;;;;;6.40;1.30;;;;;;;10.09;82.23;101467.75;5123356;27;20082;-69
2023/09/25 00:03:33;;;;;;;5.03;1.13;;;;;;;10.02;82.60;101470.59;5124274;27;20089;-69
2023/09/25 00:06:36;;;;;;;;;;;;;;;9.91;83.77;101469.25;5125071;27;20588;-69
2023/09/25 00:09:40;;;;;;;4.30;1.35;;;;;;;9.96;82.68;101470.81;5124700;27;19998;-69
2023/09/25 00:12:44;;;;;;;2.60;1.20;;;;;;;10.02;82.13;101470.59;5121727;27;20116;-69
2023/09/25 00:15:47;;;;;;;4.55;1.27;;;;;;;9.81;83.31;101466.09;5113978;28;20193;-69
2023/09/25 00:18:51;;;;;;;3.78;1.35;;;;;;;9.81;83.58;101471.31;5113838;28;20179;-69
2023/09/25 00:21:54;;;;;;;3.70;0.90;;;;;;;9.81;82.64;101476.53;5113799;28;20046;-69
2023/09/25 00:24:57;;;;;;;4.88;1.30;;;;;;;9.84;82.28;101471.22;5113152;28;20046;-69
2023/09/25 00:28:02;;;;;;;3.78;1.27;;;;;;;9.78;82.58;101466.19;5113534;28;20078;-69
2023/09/25 00:31:05;;;;;;;2.50;1.00;;;;;;;9.71;82.98;101464.72;5112432;28;20419;-69
2023/09/25 00:34:08;;;;;;;2.80;1.10;;;;;;;9.73;82.76;101468.09;5111698;28;20047;-69
2023/09/25 00:37:12;;;;;;;2.63;0.98;;;;;;;9.80;82.37;101464.41;5113078;28;20049;-69
2023/09/25 00:40:19;;;;;;;6.03;1.20;;;;;;;9.70;82.42;101466.47;5113797;28;20147;-69
2023/09/25 00:43:22;;;;;;;2.80;1.08;;;;;;;9.73;82.22;101462.88;5112407;28;20045;-69
2023/09/25 00:46:25;;;;;;;9.85;1.35;;;;;;;9.69;82.37;101462.13;5113304;28;20034;-69
2023/09/25 00:49:30;;;;;;;;;;;;;;;9.64;82.41;101458.00;5112121;28;20039;-69
2023/09/25 00:52:36;;;;;;;3.83;1.02;;;;;;;9.58;82.33;101458.19;5112751;28;19922;-69
2023/09/25 00:55:39;;;;;;;2.85;0.90;;;;;;;9.52;82.49;101456.63;5111537;28;20570;-69
2023/09/25 00:58:42;;;;;;;;;;;;;;;9.51;82.46;101458.41;5112850;28;20452;-69
2023/09/25 01:01:46;;;;;;;2.75;1.20;;;;;;;9.50;82.79;101451.44;5112512;28;20402;-69
2023/09/25 01:04:49;;;;;;;2.95;1.02;;;;;;;9.46;83.00;101460.28;5113229;28;20097;-69
2023/09/25 01:07:53;;;;;;;4.38;1.10;;;;;;;9.47;82.74;101461.13;5116614;28;20184;-69
2023/09/25 01:10:57;;;;;;;3.60;1.30;;;;;;;9.42;82.73;101465.69;5115997;28;20041;-69
2023/09/25 01:14:01;;;;;;;4.13;1.10;;;;;;;9.40;82.90;101465.72;5116582;28;20046;-69
2023/09/25 01:17:05;;;;;;;2.97;1.05;;;;;;;9.37;82.80;101465.81;5116564;28;20131;-69
2023/09/25 01:20:17;;;;;;;4.13;1.10;;;;;;;9.21;83.35;101462.81;5125157;27;20042;-69
2023/09/25 01:23:20;;;;;;;4.45;1.10;;;;;;;9.22;83.43;101466.28;5137656;27;20187;-69
2023/09/25 01:26:23;;;;;;;4.15;1.10;;;;;;;9.33;83.06;101458.97;5136902;27;20567;-69
2023/09/25 01:29:27;;;;;;;6.57;1.48;;;;;;;9.36;82.90;101461.50;5136383;27;20042;-69
2023/09/25 01:32:30;;;;;;;3.53;0.98;;;;;;;9.32;82.60;101457.28;5137832;27;20411;-69
2023/09/25 01:35:33;;;;;;;;;;;;;;;9.29;82.79;101446.94;5136289;27;20089;-69
2023/09/25 01:38:36;;;;;;;3.17;1.10;;;;;;;9.17;83.37;101444.72;5137258;27;19917;-69
2023/09/25 01:41:39;;;;;;;;;;;;;;;9.16;83.44;101440.41;5137072;27;20167;-69
2023/09/25 01:44:43;;;;;;;4.20;0.80;;;;;;;9.20;82.91;101442.00;5136546;27;19917;-70
2023/09/25 01:47:51;;;;;;;5.13;1.85;;;;;;;9.20;82.37;101434.19;5136673;27;20441;-69
2023/09/25 01:50:54;;;;;;;2.58;1.33;;;;;;;9.14;82.35;101432.63;5136419;27;20623;-69
2023/09/25 01:53:57;;;;;;;;;;;;;;;8.99;83.42;101439.16;5137594;27;20096;-69
2023/09/25 01:57:00;;;;;;;4.13;1.43;;;;;;;9.12;82.55;101429.19;5136814;27;19936;-69
2023/09/25 02:00:10;;;;;;;6.60;1.17;;;;;;;9.08;82.62;101436.28;5135506;27;20264;-69
2023/09/25 02:03:18;;;;;;;4.60;1.05;;;;;;;9.07;82.24;101431.97;5136199;27;20041;-69
2023/09/25 02:06:21;;;;;;;;;;;;;;;9.05;82.33;101435.50;5137381;27;20407;-69
2023/09/25 02:09:24;;;;;;;4.03;1.10;;;;;;;8.89;83.19;101432.53;5136988;27;19964;-69
2023/09/25 02:12:29;;;;;;;6.38;1.20;;;;;;;8.98;82.91;101427.03;5135196;27;20136;-69
2023/09/25 02:15:32;;;;;;;8.40;1.38;;;;;;;8.96;82.79;101418.38;5135398;27;20081;-69
2023/09/25 02:18:35;;;;;;;;;;;;;;;8.97;82.65;101421.88;5135668;27;20042;-69
2023/09/25 02:21:39;;;;;;;4.05;1.20;;;;;;;8.96;82.70;101418.38;5135742;27;19957;-69
2023/09/25 02:24:42;;;;;;;4.70;1.58;;;;;;;9.01;82.61;101420.88;5136530;27;20127;-69
2023/09/25 02:27:46;;;;;;;3.70;1.10;;;;;;;8.88;82.93;101415.19;5136797;27;20038;-69
2023/09/25 02:30:50;;;;;;;3.47;1.00;;;;;;;8.87;83.26;101423.03;5135698;27;20444;-69
2023/09/25 02:33:53;;;;;;;7.53;1.00;;;;;;;8.71;83.95;101413.09;5136520;27;20042;-69
2023/09/25 02:36:56;;;;;;;;;;;;;;;8.70;84.04;101413.97;5136737;27;20041;-69
2023/09/25 02:39:59;;;;;;;1.95;0.75;;;;;;;8.67;84.39;101414.06;5135138;27;19918;-69
2023/09/25 02:43:03;;;;;;;;;;;;;;;8.56;84.54;101422.22;5136723;27;20042;-69
2023/09/25 02:46:06;;;;;;;4.60;0.90;;;;;;;8.63;83.86;101416.81;5123496;27;19918;-69
2023/09/25 02:49:09;;;;;;;;;;;;;;;8.73;83.47;101413.03;5135809;27;20046;-70
2023/09/25 02:52:12;;;;;;;4.90;1.20;;;;;;;8.65;83.51;101415.00;5129139;27;20002;-69
2023/09/25 02:55:15;;;;;;;2.65;1.00;;;;;;;8.68;83.52;101412.31;5126271;27;20103;-71
2023/09/25 02:58:18;;;;;;;;;;;;;;;8.66;83.52;101411.53;5116710;27;20081;-70
2023/09/25 03:01:22;;;;;;;4.95;1.23;;;;;;;8.51;84.82;101410.22;5122023;27;19919;-71
2023/09/25 03:04:25;;;;;;;3.47;1.15;;;;;;;8.54;84.12;101410.97;5126575;27;20047;-71
2023/09/25 03:07:29;;;;;;;;;;;;;;;8.61;83.80;101417.75;5125496;27;20076;-71
2023/09/25 03:10:32;;;;;;;4.68;1.15;;;;;;;8.63;83.33;101424.66;5122560;27;19934;-71
2023/09/25 03:13:35;;;;;;;;;;;;;;;8.59;83.19;101418.69;5123649;27;20514;-70
2023/09/25 03:16:40;;;;;;;8.77;1.23;;;;;;;8.49;83.99;101428.53;5124732;27;19923;-71
2023/09/25 03:19:44;;;;;;;3.47;0.90;;;;;;;8.48;83.83;101432.00;5125330;27;20039;-71
2023/09/25 03:22:47;;;;;;;5.53;1.20;;;;;;;8.39;84.28;101427.06;5125769;27;20571;-71
2023/09/25 03:25:53;;;;;;;1.60;0.60;;;;;;;8.38;84.54;101433.19;5123828;27;20038;-71
2023/09/25 03:28:56;;;;;;;;;;;;;;;8.35;84.66;101423.66;5122951;27;20034;-70
2023/09/25 03:32:00;;;;;;;3.45;1.15;;;;;;;8.38;84.70;101430.56;5124891;27;19918;-70
2023/09/25 03:35:05;;;;;;;4.65;1.10;;;;;;;8.42;84.05;101426.97;5125547;27;20448;-70
2023/09/25 03:38:09;;;;;;;8.02;0.95;;;;;;;8.37;83.84;101418.41;5122298;27;20043;-70
2023/09/25 03:41:12;;;;;;;2.28;0.70;;;;;;;8.38;83.87;101426.22;5119761;27;20050;-70
2023/09/25 03:44:15;;;;;;;1.95;0.80;;;;;;;8.30;84.04;101427.31;5122152;27;20104;-70
2023/09/25 03:47:19;;;;;;;2.80;1.10;;;;;;;8.31;84.34;101418.59;5125366;27;20061;-70
2023/09/25 03:50:22;;;;;;;5.80;1.20;;;;;;;8.35;84.03;101420.19;5124764;27;20088;-70
2023/09/25 03:53:26;;;;;;;;;;;;;;;8.29;84.48;101418.63;5123027;27;20118;-71
2023/09/25 03:56:29;;;;;;;3.63;0.95;;;;;;;8.30;84.43;101428.16;5109737;27;20018;-69
2023/09/25 03:59:32;;;;;;;3.40;1.42;;;;;;;8.33;83.97;101422.88;5122983;27;20069;-69
2023/09/25 04:02:35;;;;;;;;;;;;;;;8.21;84.91;101419.75;5123893;27;20038;-70
2023/09/25 04:05:38;;;;;;;3.58;0.90;;;;;;;8.27;84.06;101424.78;5124100;27;20004;-70
2023/09/25 04:08:42;;;;;;;;;;;;;;;8.31;83.92;101432.47;5124561;27;20035;-71
2023/09/25 04:11:45;;;;;;;4.67;0.73;;;;;;;8.34;83.94;101437.59;5124513;27;19922;-71
2023/09/25 04:14:48;;;;;;;;;;;;;;;8.33;83.65;101432.44;5124985;27;20042;-70
2023/09/25 04:17:52;;;;;;;3.35;1.00;;;;;;;8.36;83.43;101422.78;5122704;27;19919;-69
2023/09/25 04:21:11;;;;;;;2.15;0.90;;;;;;;8.33;83.65;101427.22;5122611;27;20107;-68
2023/09/25 04:24:14;;;;;;;3.63;0.80;;;;;;;8.29;83.51;101428.19;5129446;27;20122;-70
2023/09/25 04:27:18;;;;;;;2.75;1.00;;;;;;;8.29;82.96;101433.41;5134364;27;20096;-69
2023/09/25 04:30:23;;;;;;;3.17;0.95;;;;;;;8.26;83.10;101423.06;5133866;27;20525;-73
2023/09/25 04:33:26;;;;;;;2.72;0.80;;;;;;;8.25;82.77;101435.25;5113530;28;20490;-71
2023/09/25 04:36:30;;;;;;;4.40;1.23;;;;;;;8.11;82.80;101438.25;5126839;27;20135;-70
2023/09/25 04:39:33;;;;;;;3.33;1.00;;;;;;;8.06;83.33;101437.50;5131237;27;20050;-71
2023/09/25 04:42:37;;;;;;;;;;;;;;;8.09;83.73;101433.97;5133900;27;20042;-72
2023/09/25 04:45:40;;;;;;;2.83;0.90;;;;;;;8.19;83.14;101431.94;5134198;27;19926;-72
2023/09/25 04:48:43;;;;;;;;;;;;;;;8.25;82.73;101434.41;5133894;27;20122;-72
2023/09/25 04:51:48;;;;;;;2.28;0.98;;;;;;;8.25;82.66;101429.19;5133988;27;19918;-72
2023/09/25 04:54:57;;;;;;;2.15;0.80;;;;;;;8.19;82.68;101439.78;5134207;27;20076;-72
2023/09/25 04:58:04;;;;;;;4.35;0.90;;;;;;;8.19;82.42;101444.97;5134249;27;20077;-72
2023/09/25 05:01:08;;;;;;;5.57;0.82;;;;;;;8.23;82.25;101446.59;5133908;27;20156;-72
2023/09/25 05:04:12;;;;;;;2.85;0.90;;;;;;;8.16;82.71;101444.16;5132757;27;20041;-72
2023/09/25 05:07:19;;;;;;;3.42;0.70;;;;;;;8.25;82.86;101439.59;5133640;28;20038;-72
2023/09/25 05:10:27;;;;;;;4.75;0.90;;;;;;;8.25;82.68;101447.41;5131847;28;20220;-72
2023/09/25 05:13:30;;;;;;;1.85;0.77;;;;;;;8.28;83.06;101452.53;5131460;28;20163;-72
2023/09/25 05:16:33;;;;;;;;;;;;;;;8.26;83.33;101455.19;5132338;28;20403;-72
2023/09/25 05:19:37;;;;;;;4.90;1.20;;;;;;;8.29;83.28;101462.06;5131745;28;19934;-72
2023/09/25 05:22:43;;;;;;;5.65;1.45;;;;;;;8.33;83.52;101455.88;5131879;28;20092;-70
2023/09/25 05:25:47;;;;;;;3.15;1.17;;;;;;;8.33;83.11;101458.50;5131967;28;20050;-70
2023/09/25 05:28:50;;;;;;;2.38;1.08;;;;;;;8.31;83.25;101458.53;5131906;28;20129;-77
2023/09/25 05:31:53;;;;;;;3.95;0.90;;;;;;;8.33;83.01;101453.28;5132188;28;20130;-74
2023/09/25 05:34:57;;;;;;;2.45;0.98;;;;;;;8.36;83.03;101461.03;5131856;28;20095;-71
2023/09/25 05:38:01;;;;;;;3.88;1.20;;;;;;;8.32;83.49;101457.63;5118131;28;20104;-71
2023/09/25 05:41:14;;;;;;;5.72;1.60;;;;;;;8.36;83.52;101459.25;5119095;28;20046;-71
2023/09/25 05:44:21;;;;;;;6.78;2.03;;;;;;;8.32;83.94;101460.22;5111037;28;20587;-72
2023/09/25 05:47:24;;;;;;;6.10;2.35;;;;;;;8.33;84.14;101458.50;5117123;28;20130;-72
2023/09/25 05:50:28;;;;;;;5.05;2.20;;;;;;;8.26;84.07;101456.94;5111081;28;20047;-72
2023/09/25 05:53:31;;;;;;;5.07;1.98;;;;;;;8.07;85.23;101473.09;5122612;27;20077;-72
2023/09/25 05:56:34;;;;;;;;;;;;;;;8.05;85.37;101474.88;5135991;27;20038;-73
2023/09/25 05:59:37;;;;;;;5.27;2.20;;;;;;;8.12;85.57;101476.41;5135677;27;19956;-72
2023/09/25 06:02:42;;;;;;;;;;;;;;;8.12;86.07;101476.41;5135819;27;20050;-74
2023/09/25 06:05:44;;;;;;;;;;;;;;;8.27;85.42;101472.53;5136023;27;19963;-74
2023/09/25 06:08:47;;;;;;;4.00;2.20;;;;;;;8.28;85.43;101470.78;5135185;27;19922;-74
2023/09/25 06:11:51;;;;;;;5.60;1.52;;;;;;;8.30;85.30;101479.44;5135023;27;20148;-72
2023/09/25 06:14:54;;;;;;;5.13;1.80;;;;;;;8.33;84.93;101482.81;5135618;27;20513;-73
2023/09/25 06:17:59;;;;;;;3.75;2.10;;;;;;;8.51;84.95;101489.25;5132855;27;20144;-74
2023/09/25 06:21:02;;;;;;;6.13;2.72;;;;;;;8.56;85.42;101484.78;5114628;28;20516;-73
2023/09/25 06:24:09;;;;;;;4.65;3.08;;;;;;;8.54;85.73;101481.34;5123202;27;20050;-74
2023/09/25 06:27:12;;;;;;;3.67;2.47;;;;;;;8.53;85.47;101482.25;5134913;27;20030;-74
2023/09/25 06:30:16;;;;;;;4.68;2.50;;;;;;;8.61;85.46;101489.84;5115449;27;20176;-73
2023/09/25 06:33:19;;;;;;;3.35;2.10;;;;;;;8.63;85.75;101487.22;5114505;28;20096;-73
2023/09/25 06:36:22;;;;;;;4.55;2.80;;;;;;;8.61;86.39;101489.84;5114143;28;20517;-74
2023/09/25 06:39:26;;;;;;;5.38;2.55;;;;;;;8.64;86.26;101484.56;5114030;28;20184;-74
2023/09/25 06:42:30;;;;;;;4.55;2.80;;;;;;;8.69;87.10;101487.03;5113611;28;20062;-73
2023/09/25 06:45:33;;;;;;;4.20;2.38;;;;;;;8.72;86.97;101477.38;5113137;28;20408;-73
2023/09/25 06:48:36;;;;;;;4.50;3.17;;;;;;;8.60;88.57;101491.59;5113332;28;20189;-73
2023/09/25 06:51:39;;;;;;;3.97;2.25;;;;;;;8.72;88.81;101497.38;5113634;28;20042;-73
2023/09/25 06:54:43;;;;;;;;;;;;;;;8.88;87.97;101501.25;5117325;27;20108;-73
2023/09/25 06:57:46;;;;;;;3.80;2.35;;;;;;;8.96;87.31;101501.84;5118763;27;19970;-75
2023/09/25 07:00:50;;;;;;;;;;;;;;;8.96;87.37;101501.00;5126450;27;20081;-74
2023/09/25 07:03:53;;;;;;;3.95;1.98;;;;;;;9.05;87.69;101496.38;5131889;27;19992;-75
2023/09/25 07:06:56;;;;;;;;;;;;;;;9.04;87.10;101492.06;5122193;27;20033;-73
2023/09/25 07:09:59;;;;;;;5.22;1.80;;;;;;;9.05;86.80;101491.16;5113234;28;19927;-71
2023/09/25 07:13:03;;;;;;;9.48;2.53;;;;;;;9.10;87.05;101493.63;5121895;27;20066;-72
2023/09/25 07:16:08;;;;;;;;;;;;;;;9.12;87.22;101491.81;5124751;27;20070;-72
2023/09/25 07:19:12;;;;;;;3.35;2.10;;;;;;;9.07;87.90;101491.97;5113976;27;19918;-70
2023/09/25 07:22:15;;;;;;;4.05;1.65;;;;;;;9.12;88.41;101485.75;5113217;28;20088;-71
2023/09/25 07:25:19;;;;;;;2.28;1.50;;;;;;;9.19;87.99;101492.47;5128603;27;20061;-73
2023/09/25 07:28:22;;;;;;;;;;;;;;;9.20;88.53;101495.06;5128361;27;20160;-72
2023/09/25 07:31:26;;;;;;;3.25;1.77;;;;;;;9.14;89.39;101495.25;5123809;27;20376;-73
2023/09/25 07:34:29;;;;;;;3.17;1.80;;;;;;;9.20;88.96;101495.06;5116810;27;20086;-73
2023/09/25 07:37:32;;;;;;;2.90;1.63;;;;;;;9.31;90.32;101492.09;5113195;28;20099;-73
2023/09/25 07:40:35;;;;;;;;;;;;;;;9.34;90.93;101486.78;5133803;27;20161;-72
2023/09/25 07:43:39;;;;;;;3.20;1.70;;;;;;;9.44;91.50;101482.97;5114783;27;19918;-71
2023/09/25 07:46:44;;;;;;;2.92;1.63;;;;;;;9.52;90.88;101494.03;5131827;27;20038;-70
2023/09/25 07:49:47;;;;;;;3.08;1.20;;;;;;;9.64;90.82;101484.94;5133469;27;20166;-69
2023/09/25 07:52:54;;;;;;;3.10;1.35;;;;;;;9.70;90.70;101479.53;5115601;27;20046;-70
2023/09/25 07:55:57;;;;;;;2.58;1.52;;;;;;;9.82;91.47;101478.25;5112538;28;20398;-70
2023/09/25 07:59:02;;;;;;;;;;;;;;;9.91;91.54;101480.53;5116921;27;20085;-69
2023/09/25 08:02:07;;;;;;;3.28;1.55;;;;;;;10.09;92.75;101476.44;5132411;27;19960;-69
2023/09/25 08:05:11;;;;;;;3.22;1.65;;;;;;;10.19;92.71;101479.59;5112211;28;20556;-69
2023/09/25 08:08:15;;;;;;;3.08;1.50;;;;;;;10.30;92.27;101479.22;5112083;28;20039;-69
2023/09/25 08:11:18;;;;;;;2.17;1.33;;;;;;;10.44;92.18;101482.22;5112276;28;20509;-68
2023/09/25 08:14:47;;;;;;;2.72;1.58;;;;;;;10.62;92.05;101472.81;5112025;28;20128;-69
2023/09/25 08:17:51;;;;;;;3.75;1.80;;;;;;;10.76;91.75;101481.03;5127088;27;20139;-69
2023/09/25 08:20:54;;;;;;;3.25;1.58;;;;;;;10.86;91.87;101474.53;5131839;27;20107;-68
2023/09/25 08:23:57;;;;;;;3.35;1.63;;;;;;;11.02;92.48;101484.41;5132632;27;20042;-69
2023/09/25 08:27:02;;;;;;;4.80;1.92;;;;;;;11.12;94.02;101488.38;5130997;27;20115;-71
2023/09/25 08:30:08;;;;;;;15.13;2.58;;;;;;;11.18;93.62;101475.03;5131382;27;20130;-70
2023/09/25 08:33:12;;;;;;;3.28;1.92;;;;;;;11.37;93.63;101470.75;5130795;27;20042;-69
2023/09/25 08:36:15;;;;;;;5.63;2.13;;;;;;;11.53;92.79;101470.16;5130680;27;20066;-70
2023/09/25 08:39:18;;;;;;;5.78;1.90;;;;;;;11.71;92.23;101469.38;5131807;27;20061;-71
2023/09/25 08:42:24;;;;;;;4.38;2.20;;;;;;;11.89;93.36;101465.16;5133011;27;20061;-71
2023/09/25 08:45:28;;;;;;;5.20;2.10;;;;;;;12.07;91.93;101456.50;5132608;27;20447;-70
2023/09/25 08:48:32;;;;;;;4.32;1.92;;;;;;;12.27;91.22;101458.25;5132762;27;20559;-72
2023/09/25 08:51:38;;;;;;;5.00;1.65;;;;;;;12.33;90.05;101452.72;5132695;27;20147;-71
2023/09/25 08:54:42;;;;;;;7.22;2.00;;;;;;;12.40;90.04;101463.78;5132654;27;20463;-72
2023/09/25 08:57:46;;;;;;;4.63;1.77;;;;;;;12.50;89.11;101456.34;5132608;27;20050;-72
2023/09/25 09:00:52;;;;;;;4.32;1.90;;;;;;;12.64;89.29;101456.59;5133155;27;20142;-72
2023/09/25 09:03:56;;;;;;;6.28;1.63;;;;;;;12.82;89.04;101449.63;5132584;27;20172;-68
2023/09/25 09:06:59;;;;;;;4.13;1.60;;;;;;;12.92;86.88;101452.66;5132909;28;20130;-73
2023/09/25 09:10:06;;;;;;;4.65;2.22;;;;;;;12.97;87.16;101453.31;5132580;28;20037;-73
2023/09/25 09:13:10;;;;;;;4.00;1.52;;;;;;;13.03;84.42;101448.63;5091834;28;20051;-73
2023/09/25 09:16:19;;;;;;;3.85;1.30;;;;;;;13.08;83.37;101443.16;5090604;28;20039;-74
2023/09/25 09:19:25;;;;;;;6.95;1.55;;;;;;;13.14;83.87;101448.09;5091645;28;20050;-73
2023/09/25 09:22:30;;;;;;;2.78;1.20;;;;;;;13.23;82.32;101442.38;5091664;28;20625;-73
2023/09/25 09:25:35;;;;;;;5.47;1.30;;;;;;;13.35;82.83;101435.72;5091675;28;20047;-73
2023/09/25 09:28:46;;;;;;;6.63;1.60;;;;;;;13.40;79.03;101430.22;5095038;28;20152;-72
2023/09/25 09:31:53;;;;;;;3.28;1.35;;;;;;;13.59;80.08;101436.28;5094924;28;20100;-72
2023/09/25 09:34:57;;;;;;;4.05;1.30;;;;;;;13.73;80.17;101425.91;5095554;28;20070;-73
2023/09/25 09:38:04;;;;;;;3.13;1.00;;;;;;;13.79;80.54;101421.28;5095624;28;20124;-72
2023/09/25 09:41:09;;;;;;;4.18;1.30;;;;;;;13.87;80.16;101413.84;5095108;28;20054;-72
2023/09/25 09:44:13;;;;;;;4.95;2.00;;;;;;;13.96;80.06;101419.47;5095481;28;20093;-73
2023/09/25 09:47:20;;;;;;;4.35;1.38;;;;;;;14.06;77.54;101413.72;5094481;28;20039;-74
2023/09/25 09:50:28;;;;;;;3.30;1.38;;;;;;;14.14;79.18;101411.56;5095825;28;20058;-73
2023/09/25 09:53:36;;;;;;;6.50;1.67;;;;;;;14.23;79.44;101407.56;5095558;28;20043;-72
2023/09/25 10:01:00;;;;;;;4.68;1.30;;;;;;;14.55;79.10;101393.56;5092790;28;20051;-71
2023/09/25 10:04:05;;;;;;;6.72;1.48;;;;;;;14.63;77.77;101383.44;5093787;28;20145;-71
2023/09/25 10:07:08;;;;;;;3.30;1.40;;;;;;;14.72;78.97;101383.88;5094706;28;20411;-70
2023/09/25 10:10:12;;;;;;;5.22;1.27;;;;;;;14.77;76.67;101379.19;5093867;28;20052;-70
2023/09/25 10:13:28;;;;;;;4.90;1.52;;;;;;;14.91;77.09;101381.91;5093821;28;20633;-71
2023/09/25 10:16:55;;;;;;;6.30;1.77;;;;;;;15.15;76.31;101373.53;5094559;28;20047;-70
2023/09/25 10:19:59;;;;;;;4.10;1.67;;;;;;;15.37;76.64;101373.13;5094626;28;20123;-70
2023/09/25 10:23:05;;;;;;;3.45;1.30;;;;;;;15.55;73.40;101364.97;5094524;28;20584;-74
2023/09/25 10:26:18;;;;;;;4.75;1.33;;;;;;;15.61;75.32;101371.69;5094525;28;20159;-70
2023/09/25 10:29:22;;;;;;;;;;;;;;;15.61;74.06;101358.50;5094672;28;20593;-72
2023/09/25 10:32:30;;;;;;;4.95;1.67;;;;;;;15.68;74.22;101359.00;5093500;28;19944;-72
2023/09/25 10:35:40;;;;;;;4.28;1.45;;;;;;;15.73;71.74;101354.28;5094286;28;20047;-70
2023/09/25 10:38:50;;;;;;;3.85;1.85;;;;;;;15.80;73.38;101348.56;5093830;28;20516;-69
2023/09/25 10:42:07;;;;;;;4.57;1.50;;;;;;;15.89;73.74;101349.81;5094563;28;20054;-71
2023/09/25 10:45:12;;;;;;;3.67;1.30;;;;;;;15.97;71.48;101347.53;5094319;28;20404;-70
2023/09/25 10:48:16;;;;;;;4.40;1.17;;;;;;;15.95;72.71;101344.16;5094016;28;20104;-70
2023/09/25 10:51:20;;;;;;;6.70;1.75;;;;;;;16.06;73.54;101332.09;5093997;28;20449;-71
2023/09/25 10:54:24;;;;;;;3.83;1.40;;;;;;;16.22;72.83;101322.25;5093862;28;20051;-71
2023/09/25 10:57:28;;;;;;;4.00;1.42;;;;;;;16.36;72.12;101322.22;5093864;28;20039;-70
2023/09/25 11:00:34;;;;;;;3.88;1.40;;;;;;;16.55;70.63;101321.03;5093476;28;20408;-70
2023/09/25 11:03:40;;;;;;;5.70;1.23;;;;;;;16.79;69.29;101308.91;5093425;28;20047;-71
2023/09/25 11:06:45;;;;;;;4.28;1.60;;;;;;;16.92;66.32;101306.31;5093332;28;20503;-72
2023/09/25 11:09:52;;;;;;;7.28;1.50;;;;;;;16.85;69.27;101310.31;5093212;28;20074;-70
2023/09/25 11:12:57;;;;;;;4.53;1.63;;;;;;;16.93;69.03;101305.34;5130563;27;20570;-70
2023/09/25 11:16:01;;;;;;;9.48;2.15;;;;;;;17.06;66.63;101308.84;5133962;27;20038;-69
2023/09/25 11:19:10;;;;;;;3.22;1.50;;;;;;;17.26;61.87;101296.09;5133892;27;20081;-71
2023/09/25 11:22:13;;;;;;;4.03;1.60;;;;;;;17.38;63.48;101305.84;5134335;27;20085;-71
2023/09/25 11:25:17;;;;;;;6.90;2.00;;;;;;;17.58;62.08;101302.69;5133863;27;20038;-71
2023/09/25 11:28:24;;;;;;;3.47;1.40;;;;;;;17.82;61.45;101289.56;5133669;27;20038;-71
2023/09/25 11:31:27;;;;;;;3.58;1.15;;;;;;;17.80;58.63;101299.38;5133603;27;20046;-71
2023/09/25 11:34:31;;;;;;;6.32;1.70;;;;;;;17.93;60.57;101291.44;5133480;27;20115;-71
2023/09/25 11:37:35;;;;;;;4.22;1.50;;;;;;;17.99;61.50;101287.50;5133939;27;20078;-72
2023/09/25 11:40:39;;;;;;;2.70;1.30;;;;;;;18.29;59.36;101287.97;5133349;27;20062;-71
2023/09/25 11:43:42;;;;;;;5.57;1.52;;;;;;;18.32;59.45;101290.38;5133197;27;20087;-72
2023/09/25 11:46:46;;;;;;;3.88;1.70;;;;;;;18.36;59.84;101275.97;5132355;27;20114;-71
2023/09/25 11:49:50;;;;;;;4.68;1.92;;;;;;;18.44;59.92;101270.13;5132628;27;20129;-71
2023/09/25 11:52:53;;;;;;;5.32;3.05;;;;;;;18.68;59.08;101277.19;5133197;27;20110;-71
2023/09/25 11:55:57;;;;;;;7.07;3.40;;;;;;;18.70;59.45;101276.13;5132953;27;20513;-72
2023/09/25 11:59:00;;;;;;;6.40;2.53;;;;;;;18.86;54.55;101267.03;5132317;27;20053;-72
2023/09/25 12:02:03;;;;;;;5.25;2.03;;;;;;;19.01;53.37;101268.53;5133102;27;20119;-71
2023/09/25 12:05:08;;;;;;;3.78;1.30;;;;;;;19.12;52.04;101275.69;5133059;27;20082;-73
2023/09/25 12:08:12;;;;;;;2.55;1.35;;;;;;;19.04;48.60;101268.31;5133301;27;20037;-70
2023/09/25 12:11:16;;;;;;;4.35;1.40;;;;;;;19.19;49.79;101275.09;5132656;27;20051;-73
2023/09/25 12:14:19;;;;;;;2.95;1.30;;;;;;;19.62;50.00;101263.81;5132710;27;20046;-69
2023/09/25 12:17:23;;;;;;;5.22;1.25;;;;;;;19.83;46.18;101263.09;5132884;27;20082;-74
2023/09/25 12:20:28;;;;;;;4.00;1.67;;;;;;;19.95;45.79;101270.94;5132657;27;20072;-71
2023/09/25 12:23:32;;;;;;;2.95;1.30;;;;;;;20.33;46.18;101261.69;5132584;27;20050;-74
2023/09/25 12:26:36;;;;;;;4.15;1.65;;;;;;;20.16;43.21;101257.72;5132808;27;20109;-73
2023/09/25 12:29:40;;;;;;;4.70;1.42;;;;;;;20.35;43.35;101259.72;5132605;27;20139;-75
2023/09/25 12:32:46;;;;;;;4.18;1.70;;;;;;;20.85;46.90;101267.19;5132557;27;20057;-76
2023/09/25 12:36:26;;;;;;;7.03;3.30;;;;;;;21.27;47.82;101253.88;5132956;27;20103;-73
2023/09/25 12:39:30;;;;;;;4.13;1.85;;;;;;;21.89;44.40;101244.06;5132260;27;20049;-74
2023/09/25 12:42:34;;;;;;;4.18;2.90;;;;;;;22.25;42.54;101245.31;5132232;27;20409;-75
2023/09/25 12:45:41;;;;;;;3.78;2.20;;;;;;;22.54;42.27;101244.47;5132793;27;20454;-71
2023/09/25 12:48:44;;;;;;;3.80;1.55;;;;;;;22.65;42.17;101241.66;5132534;27;20076;-72
2023/09/25 12:51:50;;;;;;;3.50;1.67;;;;;;;22.73;40.06;101239.97;5131377;27;20042;-71
2023/09/25 12:54:53;;;;;;;3.22;1.40;;;;;;;23.60;39.08;101235.41;5130472;27;20091;-72
2023/09/25 12:57:57;;;;;;;4.05;1.67;;;;;;;23.99;37.87;101237.88;5132373;27;20108;-71
2023/09/25 13:01:01;;;;;;;4.57;1.60;;;;;;;24.39;36.28;101241.97;5132833;27;20090;-72
2023/09/25 13:04:05;;;;;;;3.38;1.73;;;;;;;25.08;36.17;101238.56;5132585;27;20394;-71
2023/09/25 13:07:08;;;;;;;4.80;3.08;;;;;;;26.05;34.02;101234.69;5132373;27;20054;-70
2023/09/25 13:10:12;;;;;;;4.68;1.92;;;;;;;27.59;30.29;101229.38;5132358;28;20387;-69
2023/09/25 13:13:15;;;;;;;5.97;1.40;;;;;;;29.38;26.49;101237.13;5091449;28;20047;-71
2023/09/25 13:16:19;;;;;;;4.32;2.53;;;;;;;33.62;22.21;101236.88;5091683;28;20063;-71
2023/09/25 13:19:25;;;;;;;4.65;1.85;;;;;;;35.68;20.00;101225.16;5090876;28;20615;-71
2023/09/25 13:22:29;;;;;;;8.65;1.90;;;;;;;36.03;18.91;101222.59;5089373;28;20047;-71
2023/09/25 13:25:34;;;;;;;7.80;1.80;;;;;;;35.46;19.72;101221.22;5090680;28;20095;-71
2023/09/25 13:28:37;;;;;;;2.20;1.42;;;;;;;35.85;18.46;101215.28;5091137;28;20039;-71
2023/09/25 13:31:43;;;;;;;2.40;1.25;;;;;;;37.68;17.62;101223.41;5091804;28;20051;-71
2023/09/25 13:34:47;;;;;;;2.50;1.35;;;;;;;38.00;18.82;101217.47;5090798;28;20093;-71
2023/09/25 13:37:51;;;;;;;3.30;1.23;;;;;;;36.12;18.71;101225.78;5091293;28;20043;-71
2023/09/25 13:41:02;;;;;;;3.25;1.55;;;;;;;36.62;18.76;101220.00;5091283;28;20043;-71
2023/09/25 13:44:10;;;;;;;3.03;1.42;;;;;;;37.44;19.93;101219.09;5091147;28;20108;-72
2023/09/25 13:47:14;;;;;;;3.90;1.70;;;;;;;35.52;19.42;101210.28;5091710;28;20172;-72
2023/09/25 13:50:19;;;;;;;2.80;1.30;;;;;;;34.67;19.63;101210.97;5090976;28;20348;-71
2023/09/25 13:53:25;;;;;;;2.90;1.60;;;;;;;32.84;21.16;101213.28;5090913;28;20097;-72
2023/09/25 13:56:33;;;;;;;3.80;1.77;;;;;;;31.15;24.08;101214.06;5090783;28;20513;-71
2023/09/25 13:59:36;;;;;;;5.20;1.50;;;;;;;30.78;28.18;101212.56;5091006;28;20126;-72
2023/09/25 14:02:40;;;;;;;2.70;1.42;;;;;;;31.80;27.01;101216.44;5090859;28;20101;-71
2023/09/25 14:05:44;;;;;;;2.20;1.13;;;;;;;31.90;26.26;101208.81;5090488;28;20399;-71
2023/09/25 14:08:47;;;;;;;2.50;1.30;;;;;;;33.31;24.59;101209.44;5090593;28;20533;-72
2023/09/25 14:11:51;;;;;;;3.28;1.40;;;;;;;33.94;24.94;101208.75;5109426;28;20123;-71
2023/09/25 14:14:55;;;;;;;4.68;1.80;;;;;;;34.95;24.16;101209.66;5135392;27;20505;-71
2023/09/25 14:17:59;;;;;;;5.30;1.58;;;;;;;35.15;24.16;101199.41;5135315;27;20046;-74
2023/09/25 14:21:03;;;;;;;2.83;1.50;;;;;;;34.04;25.13;101194.72;5135424;27;20045;-71
2023/09/25 14:24:06;;;;;;;3.55;2.22;;;;;;;33.73;24.45;101190.09;5135306;27;20046;-69
2023/09/25 14:27:10;;;;;;;3.50;2.20;;;;;;;35.58;23.02;101186.81;5135520;27;20058;-69
2023/09/25 14:30:15;;;;;;;10.07;2.70;;;;;;;34.90;23.38;101185.84;5135084;27;20406;-69
2023/09/25 14:33:19;;;;;;;5.13;2.00;;;;;;;34.54;24.24;101191.25;5135194;27;20042;-69
2023/09/25 14:36:22;;;;;;;5.20;1.70;;;;;;;34.60;23.81;101184.91;5134889;27;20096;-69